sensor_id;sensor_type;location;lat;lon;timestamp;temperature;humidity
31819;DHT22;18384;48.860;9.188;2023-07-22T00:01:10;17.60;94.10
31819;DHT22;18384;48.860;9.188;2023-07-22T00:03:36;17.60;94.10
31819;DHT22;18384;48.860;9.188;2023-07-22T00:06:09;17.60;94.40
31819;DHT22;18384;48.860;9.188;2023-07-22T00:08:37;17.60;94.10
31819;DHT22;18384;48.860;9.188;2023-07-22T00:11:07;17.60;94.50
31819;DHT22;18384;48.860;9.188;2023-07-22T00:13:34;17.60;94.40
31819;DHT22;18384;48.860;9.188;2023-07-22T00:16:00;17.50;94.40
31819;DHT22;18384;48.860;9.188;2023-07-22T00:18:27;17.50;94.60
31819;DHT22;18384;48.860;9.188;2023-07-22T00:20:54;17.50;94.70
31819;DHT22;18384;48.860;9.188;2023-07-22T00:23:20;17.50;94.60
31819;DHT22;18384;48.860;9.188;2023-07-22T00:25:47;17.50;94.40
31819;DHT22;18384;48.860;9.188;2023-07-22T00:28:14;17.50;94.60
31819;DHT22;18384;48.860;9.188;2023-07-22T00:30:40;17.50;94.60
31819;DHT22;18384;48.860;9.188;2023-07-22T00:33:07;17.50;94.50
31819;DHT22;18384;48.860;9.188;2023-07-22T00:35:35;17.40;94.50
31819;DHT22;18384;48.860;9.188;2023-07-22T00:38:01;17.40;94.80
31819;DHT22;18384;48.860;9.188;2023-07-22T00:40:28;17.40;94.80
31819;DHT22;18384;48.860;9.188;2023-07-22T00:42:57;17.40;94.70
31819;DHT22;18384;48.860;9.188;2023-07-22T00:45:24;17.40;94.80
31819;DHT22;18384;48.860;9.188;2023-07-22T00:47:50;17.40;94.80
31819;DHT22;18384;48.860;9.188;2023-07-22T00:50:17;17.40;94.70
31819;DHT22;18384;48.860;9.188;2023-07-22T00:52:43;17.30;94.60
31819;DHT22;18384;48.860;9.188;2023-07-22T00:55:09;17.30;94.60
31819;DHT22;18384;48.860;9.188;2023-07-22T00:57:36;17.20;94.70
31819;DHT22;18384;48.860;9.188;2023-07-22T01:00:04;17.30;94.70
31819;DHT22;18384;48.860;9.188;2023-07-22T01:02:31;17.20;94.80
31819;DHT22;18384;48.860;9.188;2023-07-22T01:04:57;17.30;94.80
31819;DHT22;18384;48.860;9.188;2023-07-22T01:07:24;17.30;94.80
31819;DHT22;18384;48.860;9.188;2023-07-22T01:09:56;17.30;94.90
31819;DHT22;18384;48.860;9.188;2023-07-22T01:12:22;17.20;94.80
31819;DHT22;18384;48.860;9.188;2023-07-22T01:14:49;17.20;94.80
31819;DHT22;18384;48.860;9.188;2023-07-22T01:17:16;17.00;94.80
31819;DHT22;18384;48.860;9.188;2023-07-22T01:19:43;17.00;95.00
31819;DHT22;18384;48.860;9.188;2023-07-22T01:22:10;16.90;95.20
31819;DHT22;18384;48.860;9.188;2023-07-22T01:24:38;16.80;95.20
31819;DHT22;18384;48.860;9.188;2023-07-22T01:27:06;16.70;95.40
31819;DHT22;18384;48.860;9.188;2023-07-22T01:29:35;16.70;95.40
31819;DHT22;18384;48.860;9.188;2023-07-22T01:32:02;16.70;95.60
31819;DHT22;18384;48.860;9.188;2023-07-22T01:34:28;16.60;95.80
31819;DHT22;18384;48.860;9.188;2023-07-22T01:36:55;16.70;95.80
31819;DHT22;18384;48.860;9.188;2023-07-22T01:39:21;16.80;95.70
31819;DHT22;18384;48.860;9.188;2023-07-22T01:41:48;16.80;95.70
31819;DHT22;18384;48.860;9.188;2023-07-22T01:44:14;16.90;95.60
31819;DHT22;18384;48.860;9.188;2023-07-22T01:46:40;16.90;95.50
31819;DHT22;18384;48.860;9.188;2023-07-22T01:49:09;16.90;95.60
31819;DHT22;18384;48.860;9.188;2023-07-22T01:51:37;16.90;95.60
31819;DHT22;18384;48.860;9.188;2023-07-22T01:54:04;16.90;95.60
31819;DHT22;18384;48.860;9.188;2023-07-22T01:56:30;16.90;95.60
31819;DHT22;18384;48.860;9.188;2023-07-22T01:58:56;16.90;95.60
31819;DHT22;18384;48.860;9.188;2023-07-22T02:01:22;16.90;95.80
31819;DHT22;18384;48.860;9.188;2023-07-22T02:03:49;16.90;95.70
31819;DHT22;18384;48.860;9.188;2023-07-22T02:06:15;16.90;95.80
31819;DHT22;18384;48.860;9.188;2023-07-22T02:08:42;16.90;95.80
31819;DHT22;18384;48.860;9.188;2023-07-22T02:11:08;16.90;95.70
31819;DHT22;18384;48.860;9.188;2023-07-22T02:13:35;16.90;95.70
31819;DHT22;18384;48.860;9.188;2023-07-22T02:16:02;16.80;95.80
31819;DHT22;18384;48.860;9.188;2023-07-22T02:18:29;16.80;95.70
31819;DHT22;18384;48.860;9.188;2023-07-22T02:20:56;16.80;95.70
31819;DHT22;18384;48.860;9.188;2023-07-22T02:23:24;16.80;95.60
31819;DHT22;18384;48.860;9.188;2023-07-22T02:25:51;16.80;95.80
31819;DHT22;18384;48.860;9.188;2023-07-22T02:28:18;16.80;95.80
31819;DHT22;18384;48.860;9.188;2023-07-22T02:30:52;16.80;95.80
31819;DHT22;18384;48.860;9.188;2023-07-22T02:33:19;16.80;95.70
31819;DHT22;18384;48.860;9.188;2023-07-22T02:35:47;16.70;95.70
31819;DHT22;18384;48.860;9.188;2023-07-22T02:38:13;16.80;95.70
31819;DHT22;18384;48.860;9.188;2023-07-22T02:40:40;16.70;95.80
31819;DHT22;18384;48.860;9.188;2023-07-22T02:43:06;16.70;95.80
31819;DHT22;18384;48.860;9.188;2023-07-22T02:45:33;16.70;96.00
31819;DHT22;18384;48.860;9.188;2023-07-22T02:48:00;16.70;96.00
31819;DHT22;18384;48.860;9.188;2023-07-22T02:50:26;16.60;96.10
31819;DHT22;18384;48.860;9.188;2023-07-22T02:52:52;16.60;96.30
31819;DHT22;18384;48.860;9.188;2023-07-22T02:55:18;16.60;96.20
31819;DHT22;18384;48.860;9.188;2023-07-22T02:57:44;16.60;96.20
31819;DHT22;18384;48.860;9.188;2023-07-22T03:00:12;16.60;96.30
31819;DHT22;18384;48.860;9.188;2023-07-22T03:02:40;16.60;96.00
31819;DHT22;18384;48.860;9.188;2023-07-22T03:05:09;16.60;96.20
31819;DHT22;18384;48.860;9.188;2023-07-22T03:07:39;16.50;96.30
31819;DHT22;18384;48.860;9.188;2023-07-22T03:10:06;16.50;96.20
31819;DHT22;18384;48.860;9.188;2023-07-22T03:12:34;16.60;96.40
31819;DHT22;18384;48.860;9.188;2023-07-22T03:15:00;16.60;96.30
31819;DHT22;18384;48.860;9.188;2023-07-22T03:17:27;16.50;96.30
31819;DHT22;18384;48.860;9.188;2023-07-22T03:19:53;16.50;96.50
31819;DHT22;18384;48.860;9.188;2023-07-22T03:22:19;16.50;96.50
31819;DHT22;18384;48.860;9.188;2023-07-22T03:24:45;16.50;96.50
31819;DHT22;18384;48.860;9.188;2023-07-22T03:27:11;17.30;96.60
31819;DHT22;18384;48.860;9.188;2023-07-22T03:29:38;16.50;96.50
31819;DHT22;18384;48.860;9.188;2023-07-22T03:32:05;16.40;96.60
31819;DHT22;18384;48.860;9.188;2023-07-22T03:34:32;16.50;96.60
31819;DHT22;18384;48.860;9.188;2023-07-22T03:36:58;16.50;96.50
31819;DHT22;18384;48.860;9.188;2023-07-22T03:39:24;16.50;96.60
31819;DHT22;18384;48.860;9.188;2023-07-22T03:41:50;16.40;96.60
31819;DHT22;18384;48.860;9.188;2023-07-22T03:44:16;16.40;96.80
31819;DHT22;18384;48.860;9.188;2023-07-22T03:46:42;16.40;96.80
31819;DHT22;18384;48.860;9.188;2023-07-22T03:49:08;16.40;96.90
31819;DHT22;18384;48.860;9.188;2023-07-22T03:51:35;16.40;96.90
31819;DHT22;18384;48.860;9.188;2023-07-22T03:54:01;16.40;96.80
31819;DHT22;18384;48.860;9.188;2023-07-22T03:56:27;16.40;97.00
31819;DHT22;18384;48.860;9.188;2023-07-22T03:58:53;16.40;97.00
31819;DHT22;18384;48.860;9.188;2023-07-22T04:01:19;16.40;96.80
31819;DHT22;18384;48.860;9.188;2023-07-22T04:03:45;16.40;96.70
31819;DHT22;18384;48.860;9.188;2023-07-22T04:06:11;16.40;96.70
31819;DHT22;18384;48.860;9.188;2023-07-22T04:08:37;16.40;96.60
31819;DHT22;18384;48.860;9.188;2023-07-22T04:11:04;16.40;96.70
31819;DHT22;18384;48.860;9.188;2023-07-22T04:13:30;16.40;96.70
31819;DHT22;18384;48.860;9.188;2023-07-22T04:15:56;16.40;96.60
31819;DHT22;18384;48.860;9.188;2023-07-22T04:18:23;16.50;96.60
31819;DHT22;18384;48.860;9.188;2023-07-22T04:20:55;16.40;96.50
31819;DHT22;18384;48.860;9.188;2023-07-22T04:23:23;16.50;96.60
31819;DHT22;18384;48.860;9.188;2023-07-22T04:25:49;16.50;96.50
31819;DHT22;18384;48.860;9.188;2023-07-22T04:28:15;16.60;96.50
31819;DHT22;18384;48.860;9.188;2023-07-22T04:30:41;16.60;96.60
31819;DHT22;18384;48.860;9.188;2023-07-22T04:33:07;16.60;96.60
31819;DHT22;18384;48.860;9.188;2023-07-22T04:35:40;16.70;96.50
31819;DHT22;18384;48.860;9.188;2023-07-22T04:38:07;16.70;96.40
31819;DHT22;18384;48.860;9.188;2023-07-22T04:40:33;16.80;96.40
31819;DHT22;18384;48.860;9.188;2023-07-22T04:42:59;16.70;96.40
31819;DHT22;18384;48.860;9.188;2023-07-22T04:45:25;16.80;96.30
31819;DHT22;18384;48.860;9.188;2023-07-22T04:47:51;16.90;96.10
31819;DHT22;18384;48.860;9.188;2023-07-22T04:50:18;17.00;96.10
31819;DHT22;18384;48.860;9.188;2023-07-22T04:52:47;17.10;95.70
31819;DHT22;18384;48.860;9.188;2023-07-22T04:55:14;17.10;95.70
31819;DHT22;18384;48.860;9.188;2023-07-22T04:57:41;17.20;95.60
31819;DHT22;18384;48.860;9.188;2023-07-22T05:00:08;17.20;95.70
31819;DHT22;18384;48.860;9.188;2023-07-22T05:02:35;17.30;95.60
31819;DHT22;18384;48.860;9.188;2023-07-22T05:05:01;17.30;95.40
31819;DHT22;18384;48.860;9.188;2023-07-22T05:07:27;17.30;95.60
31819;DHT22;18384;48.860;9.188;2023-07-22T05:09:53;17.40;95.70
31819;DHT22;18384;48.860;9.188;2023-07-22T05:12:20;17.50;95.50
31819;DHT22;18384;48.860;9.188;2023-07-22T05:14:46;17.60;95.00
31819;DHT22;18384;48.860;9.188;2023-07-22T05:17:12;17.60;95.20
31819;DHT22;18384;48.860;9.188;2023-07-22T05:19:38;17.60;95.40
31819;DHT22;18384;48.860;9.188;2023-07-22T05:22:04;17.70;95.20
31819;DHT22;18384;48.860;9.188;2023-07-22T05:24:30;17.80;95.20
31819;DHT22;18384;48.860;9.188;2023-07-22T05:26:56;17.70;94.60
31819;DHT22;18384;48.860;9.188;2023-07-22T05:29:22;17.80;94.40
31819;DHT22;18384;48.860;9.188;2023-07-22T05:31:48;17.90;94.30
31819;DHT22;18384;48.860;9.188;2023-07-22T05:34:15;18.00;94.70
31819;DHT22;18384;48.860;9.188;2023-07-22T05:36:41;18.00;94.60
31819;DHT22;18384;48.860;9.188;2023-07-22T05:39:07;18.10;94.50
31819;DHT22;18384;48.860;9.188;2023-07-22T05:41:34;18.20;94.30
31819;DHT22;18384;48.860;9.188;2023-07-22T05:44:00;18.20;94.10
31819;DHT22;18384;48.860;9.188;2023-07-22T05:46:26;18.30;93.70
31819;DHT22;18384;48.860;9.188;2023-07-22T05:48:52;18.50;93.40
31819;DHT22;18384;48.860;9.188;2023-07-22T05:51:18;18.60;93.40
31819;DHT22;18384;48.860;9.188;2023-07-22T05:53:44;18.70;93.70
31819;DHT22;18384;48.860;9.188;2023-07-22T05:56:10;18.80;92.90
31819;DHT22;18384;48.860;9.188;2023-07-22T05:58:36;18.90;92.50
31819;DHT22;18384;48.860;9.188;2023-07-22T06:01:03;18.80;92.80
31819;DHT22;18384;48.860;9.188;2023-07-22T06:03:29;18.90;92.90
31819;DHT22;18384;48.860;9.188;2023-07-22T06:05:55;18.90;92.40
31819;DHT22;18384;48.860;9.188;2023-07-22T06:08:21;19.00;92.30
31819;DHT22;18384;48.860;9.188;2023-07-22T06:10:47;19.20;92.90
31819;DHT22;18384;48.860;9.188;2023-07-22T06:13:13;19.20;92.80
31819;DHT22;18384;48.860;9.188;2023-07-22T06:15:39;19.30;92.60
31819;DHT22;18384;48.860;9.188;2023-07-22T06:18:05;19.70;91.80
31819;DHT22;18384;48.860;9.188;2023-07-22T06:20:35;19.90;91.50
31819;DHT22;18384;48.860;9.188;2023-07-22T06:23:02;20.10;91.50
31819;DHT22;18384;48.860;9.188;2023-07-22T06:25:28;20.20;91.60
31819;DHT22;18384;48.860;9.188;2023-07-22T06:27:54;20.30;91.50
31819;DHT22;18384;48.860;9.188;2023-07-22T06:30:20;20.10;91.40
31819;DHT22;18384;48.860;9.188;2023-07-22T06:32:47;20.30;91.60
31819;DHT22;18384;48.860;9.188;2023-07-22T06:35:13;20.10;91.60
31819;DHT22;18384;48.860;9.188;2023-07-22T06:37:39;20.20;91.10
31819;DHT22;18384;48.860;9.188;2023-07-22T06:40:06;20.20;91.60
31819;DHT22;18384;48.860;9.188;2023-07-22T06:42:33;20.20;91.00
31819;DHT22;18384;48.860;9.188;2023-07-22T06:44:59;20.20;91.30
31819;DHT22;18384;48.860;9.188;2023-07-22T06:47:25;20.20;91.30
31819;DHT22;18384;48.860;9.188;2023-07-22T06:49:51;20.20;90.80
31819;DHT22;18384;48.860;9.188;2023-07-22T06:52:18;21.20;91.20
31819;DHT22;18384;48.860;9.188;2023-07-22T06:54:44;20.20;90.90
31819;DHT22;18384;48.860;9.188;2023-07-22T06:57:10;20.20;90.30
31819;DHT22;18384;48.860;9.188;2023-07-22T06:59:36;20.30;90.50
31819;DHT22;18384;48.860;9.188;2023-07-22T07:02:03;20.30;91.30
31819;DHT22;18384;48.860;9.188;2023-07-22T07:04:31;20.30;91.00
31819;DHT22;18384;48.860;9.188;2023-07-22T07:06:57;20.40;91.10
31819;DHT22;18384;48.860;9.188;2023-07-22T07:09:23;20.30;90.50
31819;DHT22;18384;48.860;9.188;2023-07-22T07:11:52;20.40;90.40
31819;DHT22;18384;48.860;9.188;2023-07-22T07:14:21;20.40;90.90
31819;DHT22;18384;48.860;9.188;2023-07-22T07:16:47;20.40;90.40
31819;DHT22;18384;48.860;9.188;2023-07-22T07:19:13;20.50;90.30
31819;DHT22;18384;48.860;9.188;2023-07-22T07:21:39;20.50;90.80
31819;DHT22;18384;48.860;9.188;2023-07-22T07:24:05;20.50;90.60
31819;DHT22;18384;48.860;9.188;2023-07-22T07:26:31;22.20;91.00
31819;DHT22;18384;48.860;9.188;2023-07-22T07:28:57;20.60;90.70
31819;DHT22;18384;48.860;9.188;2023-07-22T07:31:24;20.70;90.60
31819;DHT22;18384;48.860;9.188;2023-07-22T07:33:50;20.80;90.50
31819;DHT22;18384;48.860;9.188;2023-07-22T07:36:17;20.90;90.20
31819;DHT22;18384;48.860;9.188;2023-07-22T07:38:43;21.00;90.70
31819;DHT22;18384;48.860;9.188;2023-07-22T07:41:10;21.00;90.40
31819;DHT22;18384;48.860;9.188;2023-07-22T07:43:41;21.10;90.20
31819;DHT22;18384;48.860;9.188;2023-07-22T07:48:59;21.20;90.00
31819;DHT22;18384;48.860;9.188;2023-07-22T07:51:27;21.20;89.80
31819;DHT22;18384;48.860;9.188;2023-07-22T07:53:56;21.30;90.40
31819;DHT22;18384;48.860;9.188;2023-07-22T07:56:26;21.30;89.40
31819;DHT22;18384;48.860;9.188;2023-07-22T07:58:52;21.30;88.90
31819;DHT22;18384;48.860;9.188;2023-07-22T08:01:19;21.40;89.80
31819;DHT22;18384;48.860;9.188;2023-07-22T08:03:45;21.50;89.70
31819;DHT22;18384;48.860;9.188;2023-07-22T08:06:12;21.60;89.60
31819;DHT22;18384;48.860;9.188;2023-07-22T08:08:39;21.50;88.50
31819;DHT22;18384;48.860;9.188;2023-07-22T08:11:13;21.50;88.60
31819;DHT22;18384;48.860;9.188;2023-07-22T08:13:41;21.50;88.80
31819;DHT22;18384;48.860;9.188;2023-07-22T08:16:10;21.50;89.40
31819;DHT22;18384;48.860;9.188;2023-07-22T08:18:37;21.60;87.00
31819;DHT22;18384;48.860;9.188;2023-07-22T08:21:08;21.60;88.10
31819;DHT22;18384;48.860;9.188;2023-07-22T08:23:35;21.70;87.90
31819;DHT22;18384;48.860;9.188;2023-07-22T08:26:02;21.70;86.30
31819;DHT22;18384;48.860;9.188;2023-07-22T08:28:31;21.70;85.50
31819;DHT22;18384;48.860;9.188;2023-07-22T08:30:57;21.70;85.10
31819;DHT22;18384;48.860;9.188;2023-07-22T08:33:26;21.80;84.70
31819;DHT22;18384;48.860;9.188;2023-07-22T08:35:52;21.70;84.60
31819;DHT22;18384;48.860;9.188;2023-07-22T08:38:18;21.80;84.50
31819;DHT22;18384;48.860;9.188;2023-07-22T08:40:44;21.70;83.40
31819;DHT22;18384;48.860;9.188;2023-07-22T08:43:16;21.70;83.20
31819;DHT22;18384;48.860;9.188;2023-07-22T08:45:47;21.40;83.60
31819;DHT22;18384;48.860;9.188;2023-07-22T08:48:16;21.50;83.40
31819;DHT22;18384;48.860;9.188;2023-07-22T08:50:55;21.40;86.10
31819;DHT22;18384;48.860;9.188;2023-07-22T08:54:24;21.40;86.10
31819;DHT22;18384;48.860;9.188;2023-07-22T08:56:50;21.30;85.60
31819;DHT22;18384;48.860;9.188;2023-07-22T08:59:20;21.40;83.90
31819;DHT22;18384;48.860;9.188;2023-07-22T09:01:48;21.40;84.80
31819;DHT22;18384;48.860;9.188;2023-07-22T09:04:14;21.60;84.20
31819;DHT22;18384;48.860;9.188;2023-07-22T09:06:42;21.60;83.80
31819;DHT22;18384;48.860;9.188;2023-07-22T09:09:09;21.70;83.30
31819;DHT22;18384;48.860;9.188;2023-07-22T09:11:35;21.70;83.00
31819;DHT22;18384;48.860;9.188;2023-07-22T09:14:03;21.80;82.60
31819;DHT22;18384;48.860;9.188;2023-07-22T09:16:32;21.90;83.10
31819;DHT22;18384;48.860;9.188;2023-07-22T09:18:58;21.90;82.70
31819;DHT22;18384;48.860;9.188;2023-07-22T09:21:24;22.00;81.90
31819;DHT22;18384;48.860;9.188;2023-07-22T09:23:51;22.10;81.10
31819;DHT22;18384;48.860;9.188;2023-07-22T09:26:18;22.20;80.60
31819;DHT22;18384;48.860;9.188;2023-07-22T09:28:55;22.50;79.20
31819;DHT22;18384;48.860;9.188;2023-07-22T09:31:25;22.60;78.70
31819;DHT22;18384;48.860;9.188;2023-07-22T09:33:52;22.80;79.10
31819;DHT22;18384;48.860;9.188;2023-07-22T09:36:21;23.10;77.60
31819;DHT22;18384;48.860;9.188;2023-07-22T09:38:58;23.20;77.10
31819;DHT22;18384;48.860;9.188;2023-07-22T09:41:28;23.30;77.70
31819;DHT22;18384;48.860;9.188;2023-07-22T09:44:02;23.60;79.70
31819;DHT22;18384;48.860;9.188;2023-07-22T09:46:32;23.90;77.10
31819;DHT22;18384;48.860;9.188;2023-07-22T09:49:03;23.90;75.60
31819;DHT22;18384;48.860;9.188;2023-07-22T09:51:38;23.80;74.90
31819;DHT22;18384;48.860;9.188;2023-07-22T09:54:06;23.70;75.30
31819;DHT22;18384;48.860;9.188;2023-07-22T09:56:46;23.70;75.50
31819;DHT22;18384;48.860;9.188;2023-07-22T09:59:14;23.70;74.20
31819;DHT22;18384;48.860;9.188;2023-07-22T10:01:46;23.60;74.00
31819;DHT22;18384;48.860;9.188;2023-07-22T10:04:16;23.50;73.20
31819;DHT22;18384;48.860;9.188;2023-07-22T10:06:43;23.60;73.60
31819;DHT22;18384;48.860;9.188;2023-07-22T10:09:11;23.70;73.70
31819;DHT22;18384;48.860;9.188;2023-07-22T10:11:39;24.00;75.60
31819;DHT22;18384;48.860;9.188;2023-07-22T10:14:05;24.10;73.50
31819;DHT22;18384;48.860;9.188;2023-07-22T10:16:32;24.10;74.80
31819;DHT22;18384;48.860;9.188;2023-07-22T10:18:59;24.20;74.40
31819;DHT22;18384;48.860;9.188;2023-07-22T10:21:26;24.30;75.30
31819;DHT22;18384;48.860;9.188;2023-07-22T10:23:54;24.40;73.70
31819;DHT22;18384;48.860;9.188;2023-07-22T10:26:21;24.50;71.40
31819;DHT22;18384;48.860;9.188;2023-07-22T10:28:47;24.40;71.40
31819;DHT22;18384;48.860;9.188;2023-07-22T10:31:14;24.40;71.90
31819;DHT22;18384;48.860;9.188;2023-07-22T10:33:47;24.40;72.60
31819;DHT22;18384;48.860;9.188;2023-07-22T10:36:15;25.70;71.60
31819;DHT22;18384;48.860;9.188;2023-07-22T10:38:42;24.60;72.00
31819;DHT22;18384;48.860;9.188;2023-07-22T10:41:16;24.60;69.00
31819;DHT22;18384;48.860;9.188;2023-07-22T10:43:52;24.60;69.60
31819;DHT22;18384;48.860;9.188;2023-07-22T10:46:34;24.60;72.20
31819;DHT22;18384;48.860;9.188;2023-07-22T10:49:12;24.60;71.90
31819;DHT22;18384;48.860;9.188;2023-07-22T10:51:39;24.40;72.10
31819;DHT22;18384;48.860;9.188;2023-07-22T10:54:12;24.50;70.60
31819;DHT22;18384;48.860;9.188;2023-07-22T10:56:43;24.60;70.80
31819;DHT22;18384;48.860;9.188;2023-07-22T10:59:13;24.60;69.80
31819;DHT22;18384;48.860;9.188;2023-07-22T11:01:43;24.60;66.50
31819;DHT22;18384;48.860;9.188;2023-07-22T11:04:14;24.60;68.40
31819;DHT22;18384;48.860;9.188;2023-07-22T11:06:59;24.60;68.50
31819;DHT22;18384;48.860;9.188;2023-07-22T11:09:39;24.60;68.90
31819;DHT22;18384;48.860;9.188;2023-07-22T11:12:09;24.80;66.60
31819;DHT22;18384;48.860;9.188;2023-07-22T11:14:50;24.80;66.60
31819;DHT22;18384;48.860;9.188;2023-07-22T11:17:27;24.80;68.70
31819;DHT22;18384;48.860;9.188;2023-07-22T11:19:56;24.70;67.40
31819;DHT22;18384;48.860;9.188;2023-07-22T11:22:23;24.80;65.30
31819;DHT22;18384;48.860;9.188;2023-07-22T11:24:49;24.80;65.70
31819;DHT22;18384;48.860;9.188;2023-07-22T11:27:15;25.00;66.30
31819;DHT22;18384;48.860;9.188;2023-07-22T11:29:41;24.80;66.80
31819;DHT22;18384;48.860;9.188;2023-07-22T11:32:15;24.90;68.50
31819;DHT22;18384;48.860;9.188;2023-07-22T11:34:46;24.70;67.00
31819;DHT22;18384;48.860;9.188;2023-07-22T11:37:13;24.90;67.00
31819;DHT22;18384;48.860;9.188;2023-07-22T11:39:40;24.90;67.40
31819;DHT22;18384;48.860;9.188;2023-07-22T11:42:08;24.90;67.20
31819;DHT22;18384;48.860;9.188;2023-07-22T11:44:34;25.00;64.90
31819;DHT22;18384;48.860;9.188;2023-07-22T11:47:04;25.00;66.20
31819;DHT22;18384;48.860;9.188;2023-07-22T11:49:37;25.00;66.30
31819;DHT22;18384;48.860;9.188;2023-07-22T11:52:11;25.00;65.30
31819;DHT22;18384;48.860;9.188;2023-07-22T11:54:45;24.90;67.90
31819;DHT22;18384;48.860;9.188;2023-07-22T11:57:21;25.00;68.30
31819;DHT22;18384;48.860;9.188;2023-07-22T11:59:53;25.00;68.80
31819;DHT22;18384;48.860;9.188;2023-07-22T12:02:27;25.00;66.60
31819;DHT22;18384;48.860;9.188;2023-07-22T12:05:04;25.00;66.00
31819;DHT22;18384;48.860;9.188;2023-07-22T12:07:35;25.10;67.60
31819;DHT22;18384;48.860;9.188;2023-07-22T12:10:04;25.00;67.20
31819;DHT22;18384;48.860;9.188;2023-07-22T12:12:36;25.10;65.40
31819;DHT22;18384;48.860;9.188;2023-07-22T12:15:14;25.00;67.50
31819;DHT22;18384;48.860;9.188;2023-07-22T12:17:46;25.00;66.70
31819;DHT22;18384;48.860;9.188;2023-07-22T12:20:14;25.00;66.50
31819;DHT22;18384;48.860;9.188;2023-07-22T12:22:41;25.00;68.40
31819;DHT22;18384;48.860;9.188;2023-07-22T12:25:08;25.10;66.00
31819;DHT22;18384;48.860;9.188;2023-07-22T12:27:36;25.20;64.70
31819;DHT22;18384;48.860;9.188;2023-07-22T12:30:02;25.20;66.90
31819;DHT22;18384;48.860;9.188;2023-07-22T12:32:29;25.20;65.30
31819;DHT22;18384;48.860;9.188;2023-07-22T12:34:55;25.20;66.60
31819;DHT22;18384;48.860;9.188;2023-07-22T12:37:21;25.20;65.40
31819;DHT22;18384;48.860;9.188;2023-07-22T12:39:47;25.40;66.60
31819;DHT22;18384;48.860;9.188;2023-07-22T12:42:13;25.60;65.40
31819;DHT22;18384;48.860;9.188;2023-07-22T12:44:39;25.60;63.40
31819;DHT22;18384;48.860;9.188;2023-07-22T12:47:06;25.70;63.90
31819;DHT22;18384;48.860;9.188;2023-07-22T12:49:33;25.90;64.60
31819;DHT22;18384;48.860;9.188;2023-07-22T12:51:59;26.00;64.30
31819;DHT22;18384;48.860;9.188;2023-07-22T12:54:32;26.20;64.90
31819;DHT22;18384;48.860;9.188;2023-07-22T12:56:58;26.20;62.10
31819;DHT22;18384;48.860;9.188;2023-07-22T12:59:24;26.20;62.20
31819;DHT22;18384;48.860;9.188;2023-07-22T13:01:50;26.20;61.10
31819;DHT22;18384;48.860;9.188;2023-07-22T13:04:16;26.20;61.70
31819;DHT22;18384;48.860;9.188;2023-07-22T13:06:42;26.40;61.80
31819;DHT22;18384;48.860;9.188;2023-07-22T13:09:09;26.40;61.00
31819;DHT22;18384;48.860;9.188;2023-07-22T13:11:35;26.40;60.00
31819;DHT22;18384;48.860;9.188;2023-07-22T13:14:01;26.40;61.80
31819;DHT22;18384;48.860;9.188;2023-07-22T13:16:28;26.30;62.00
31819;DHT22;18384;48.860;9.188;2023-07-22T13:18:55;26.20;62.20
31819;DHT22;18384;48.860;9.188;2023-07-22T13:21:21;26.00;62.80
31819;DHT22;18384;48.860;9.188;2023-07-22T13:23:47;25.70;63.30
31819;DHT22;18384;48.860;9.188;2023-07-22T13:26:14;25.50;64.10
31819;DHT22;18384;48.860;9.188;2023-07-22T13:28:40;25.40;64.50
31819;DHT22;18384;48.860;9.188;2023-07-22T13:31:06;25.30;64.70
31819;DHT22;18384;48.860;9.188;2023-07-22T13:33:32;25.30;64.30
31819;DHT22;18384;48.860;9.188;2023-07-22T13:35:58;25.40;65.10
31819;DHT22;18384;48.860;9.188;2023-07-22T13:38:24;25.50;64.80
31819;DHT22;18384;48.860;9.188;2023-07-22T13:40:51;25.60;63.60
31819;DHT22;18384;48.860;9.188;2023-07-22T13:43:17;25.60;64.00
31819;DHT22;18384;48.860;9.188;2023-07-22T13:45:44;25.70;63.00
31819;DHT22;18384;48.860;9.188;2023-07-22T13:48:10;25.70;63.30
31819;DHT22;18384;48.860;9.188;2023-07-22T13:50:37;25.70;64.10
31819;DHT22;18384;48.860;9.188;2023-07-22T13:53:03;25.60;62.40
31819;DHT22;18384;48.860;9.188;2023-07-22T13:55:29;25.70;62.30
31819;DHT22;18384;48.860;9.188;2023-07-22T13:57:55;25.70;63.50
31819;DHT22;18384;48.860;9.188;2023-07-22T14:00:21;25.70;61.50
31819;DHT22;18384;48.860;9.188;2023-07-22T14:02:48;26.30;62.80
31819;DHT22;18384;48.860;9.188;2023-07-22T14:05:14;25.70;61.70
31819;DHT22;18384;48.860;9.188;2023-07-22T14:07:40;25.50;62.00
31819;DHT22;18384;48.860;9.188;2023-07-22T14:10:06;25.60;62.00
31819;DHT22;18384;48.860;9.188;2023-07-22T14:12:33;25.70;62.30
31819;DHT22;18384;48.860;9.188;2023-07-22T14:14:59;25.80;62.00
31819;DHT22;18384;48.860;9.188;2023-07-22T14:17:25;25.80;63.90
31819;DHT22;18384;48.860;9.188;2023-07-22T14:19:51;25.90;62.70
31819;DHT22;18384;48.860;9.188;2023-07-22T14:22:18;26.20;62.70
31819;DHT22;18384;48.860;9.188;2023-07-22T14:24:44;26.20;61.70
31819;DHT22;18384;48.860;9.188;2023-07-22T14:27:10;26.30;62.70
31819;DHT22;18384;48.860;9.188;2023-07-22T14:29:36;26.40;62.20
31819;DHT22;18384;48.860;9.188;2023-07-22T14:32:02;26.50;62.30
31819;DHT22;18384;48.860;9.188;2023-07-22T14:34:28;26.70;62.40
31819;DHT22;18384;48.860;9.188;2023-07-22T14:36:55;26.70;61.60
31819;DHT22;18384;48.860;9.188;2023-07-22T14:39:21;26.80;61.10
31819;DHT22;18384;48.860;9.188;2023-07-22T14:41:47;26.80;59.40
31819;DHT22;18384;48.860;9.188;2023-07-22T14:44:13;26.90;60.00
31819;DHT22;18384;48.860;9.188;2023-07-22T14:46:39;26.80;60.40
31819;DHT22;18384;48.860;9.188;2023-07-22T14:49:05;26.80;59.20
31819;DHT22;18384;48.860;9.188;2023-07-22T14:51:35;26.80;60.10
31819;DHT22;18384;48.860;9.188;2023-07-22T14:54:02;26.60;60.60
31819;DHT22;18384;48.860;9.188;2023-07-22T14:56:29;26.60;59.70
31819;DHT22;18384;48.860;9.188;2023-07-22T14:58:55;26.60;60.30
31819;DHT22;18384;48.860;9.188;2023-07-22T15:01:21;26.50;59.90
31819;DHT22;18384;48.860;9.188;2023-07-22T15:03:48;26.40;59.20
31819;DHT22;18384;48.860;9.188;2023-07-22T15:06:14;26.30;59.20
31819;DHT22;18384;48.860;9.188;2023-07-22T15:08:40;26.10;59.20
31819;DHT22;18384;48.860;9.188;2023-07-22T15:11:07;26.00;58.80
31819;DHT22;18384;48.860;9.188;2023-07-22T15:13:33;26.00;59.90
31819;DHT22;18384;48.860;9.188;2023-07-22T15:15:59;26.10;61.10
31819;DHT22;18384;48.860;9.188;2023-07-22T15:18:25;26.10;59.90
31819;DHT22;18384;48.860;9.188;2023-07-22T15:20:52;26.00;59.70
31819;DHT22;18384;48.860;9.188;2023-07-22T15:23:19;26.10;60.60
31819;DHT22;18384;48.860;9.188;2023-07-22T15:25:45;26.10;60.00
31819;DHT22;18384;48.860;9.188;2023-07-22T15:28:11;26.20;60.00
31819;DHT22;18384;48.860;9.188;2023-07-22T15:30:37;26.10;60.40
31819;DHT22;18384;48.860;9.188;2023-07-22T15:33:04;26.20;60.60
31819;DHT22;18384;48.860;9.188;2023-07-22T15:35:31;26.10;60.90